createdAt,value
2022-08-27T00:01:35.513Z,98352.47
2022-08-27T00:04:02.672Z,98361.81
2022-08-27T00:06:29.363Z,98355.28
2022-08-27T00:08:55.996Z,98358.88
2022-08-27T00:11:25.390Z,98360.03
2022-08-27T00:13:53.075Z,98357.22
2022-08-27T00:16:20.736Z,98366.91
2022-08-27T00:18:48.603Z,98363.06
2022-08-27T00:21:17.250Z,98361.06
2022-08-27T00:23:43.947Z,98357.06
2022-08-27T00:26:11.190Z,98357.38
2022-08-27T00:28:39.686Z,98359.88
2022-08-27T00:31:07.527Z,98362.25
2022-08-27T00:33:36.634Z,98359.25
2022-08-27T00:36:05.078Z,98349.22
2022-08-27T00:38:31.637Z,98358.75
2022-08-27T00:40:59.308Z,98356.06
2022-08-27T00:43:32.603Z,98356.56
2022-08-27T00:46:11.602Z,98353.69
2022-08-27T00:48:38.322Z,98357.69
2022-08-27T00:51:06.592Z,98347.88
2022-08-27T00:53:35.993Z,98360.41
2022-08-27T00:56:16.243Z,98361.06
2022-08-27T00:58:47.954Z,98361.72
2022-08-27T01:01:19.690Z,98361.19
2022-08-27T01:03:51.066Z,98364.72
2022-08-27T01:06:20.047Z,98353.53
2022-08-27T01:08:57.040Z,98367.75
2022-08-27T01:11:25.075Z,98362.41
2022-08-27T01:13:59.810Z,98363.38
2022-08-27T01:16:36.167Z,98368.41
2022-08-27T01:19:14.438Z,98363.91
2022-08-27T01:22:28.643Z,98358.41
2022-08-27T01:25:01.079Z,98360.94
2022-08-27T01:27:31.506Z,98358.75
2022-08-27T01:29:58.818Z,98355.06
2022-08-27T01:32:32.213Z,98352.41
2022-08-27T01:35:00.887Z,98354.25
2022-08-27T01:37:28.707Z,98357.94
2022-08-27T01:39:59.188Z,98360.44
2022-08-27T01:42:38.790Z,98349.06
2022-08-27T01:45:12.478Z,98358.09
2022-08-27T01:47:39.351Z,98359.78
2022-08-27T01:50:13.198Z,98358.81
2022-08-27T01:52:40.575Z,98366.81
2022-08-27T01:55:11.899Z,98356.97
2022-08-27T01:57:39.802Z,98361.63
2022-08-27T02:00:14.458Z,98356.28
2022-08-27T02:02:42.654Z,98352.78
2022-08-27T02:05:09.841Z,98355.78
2022-08-27T02:07:38.399Z,98353.47
2022-08-27T02:10:08.946Z,98353.94
2022-08-27T02:12:35.646Z,98356.94
2022-08-27T02:15:02.728Z,98348.28
2022-08-27T02:17:29.246Z,98344.44
2022-08-27T02:19:56.771Z,98347.47
2022-08-27T02:22:24.371Z,98356.09
2022-08-27T02:24:51.122Z,98357.47
2022-08-27T02:27:18.326Z,98347.47
2022-08-27T02:29:44.814Z,98347.09
2022-08-27T02:32:17.643Z,98354.47
2022-08-27T02:34:50.589Z,98349.28
2022-08-27T02:37:17.360Z,98348.63
2022-08-27T02:39:46.089Z,98350.78
2022-08-27T02:42:12.687Z,98347.09
2022-08-27T02:44:39.502Z,98349.78
2022-08-27T02:47:06.950Z,98352.94
2022-08-27T02:49:34.163Z,98348.44
2022-08-27T02:52:00.656Z,98349.13
2022-08-27T02:54:27.651Z,98348.28
2022-08-27T02:56:54.863Z,98349.78
2022-08-27T02:59:22.503Z,98345.13
2022-08-27T03:01:49.545Z,98346.59
2022-08-27T03:04:19.719Z,98347.94
2022-08-27T03:06:47.272Z,98349.44
2022-08-27T03:09:14.006Z,98343.09
2022-08-27T03:11:41.831Z,98333.75
2022-08-27T03:14:09.030Z,98348.13
2022-08-27T03:16:37.666Z,98338.94
2022-08-27T03:19:06.987Z,98346.28
2022-08-27T03:21:36.266Z,98339.28
2022-08-27T03:24:11.334Z,98339.75
2022-08-27T03:26:39.432Z,98338.38
2022-08-27T03:29:07.807Z,98342.53
2022-08-27T03:31:34.720Z,98343.66
2022-08-27T03:34:08.036Z,98338.16
2022-08-27T03:36:34.567Z,98343.34
2022-08-27T03:39:01.084Z,98345.19
2022-08-27T03:41:39.995Z,98346.56
2022-08-27T03:44:21.468Z,98356.22
2022-08-27T03:46:49.563Z,98349.69
2022-08-27T03:49:20.206Z,98343.56
2022-08-27T03:51:47.612Z,98334.06
2022-08-27T03:54:15.058Z,98337.38
2022-08-27T03:56:41.785Z,98337.00
2022-08-27T03:59:09.136Z,98338.84
2022-08-27T04:01:35.951Z,98340.00
2022-08-27T04:04:03.106Z,98335.31
2022-08-27T04:06:29.698Z,98337.50
2022-08-27T04:08:56.503Z,98338.00
2022-08-27T04:11:23.315Z,98337.31
2022-08-27T04:13:49.895Z,98338.16
2022-08-27T04:16:16.721Z,98342.31
2022-08-27T04:18:43.267Z,98341.63
2022-08-27T04:21:13.087Z,98347.97
2022-08-27T04:23:41.877Z,98346.63
2022-08-27T04:26:10.916Z,98346.00
2022-08-27T04:28:38.813Z,98352.50
2022-08-27T04:31:16.423Z,98351.28
2022-08-27T04:33:51.294Z,98353.59
2022-08-27T04:36:19.983Z,98353.06
2022-08-27T04:38:47.709Z,98355.59
2022-08-27T04:41:21.234Z,98355.75
2022-08-27T04:43:56.143Z,98351.72
2022-08-27T04:46:29.938Z,98360.22
2022-08-27T04:49:03.646Z,98358.88
2022-08-27T04:51:40.099Z,98352.91
2022-08-27T04:54:08.559Z,98360.72
2022-08-27T04:56:36.787Z,98357.88
2022-08-27T04:59:07.991Z,98358.38
2022-08-27T05:01:35.976Z,98366.38
2022-08-27T05:04:03.042Z,98369.88
2022-08-27T05:06:30.286Z,98364.03
2022-08-27T05:08:57.102Z,98359.59
2022-08-27T05:11:28.290Z,98371.28
2022-08-27T05:13:54.834Z,98361.91
2022-08-27T05:16:23.030Z,98370.25
2022-08-27T05:18:51.666Z,98372.44
2022-08-27T05:21:22.236Z,98378.09
2022-08-27T05:23:49.068Z,98371.75
2022-08-27T05:26:16.347Z,98371.78
2022-08-27T05:28:44.089Z,98372.28
2022-08-27T05:31:14.176Z,98377.63
2022-08-27T05:33:42.929Z,98374.63
2022-08-27T05:36:18.615Z,98380.94
2022-08-27T05:38:45.759Z,98375.03
2022-08-27T05:41:20.842Z,98375.03
2022-08-27T05:43:50.119Z,98376.75
2022-08-27T05:46:20.521Z,98379.75
2022-08-27T05:48:50.188Z,98379.09
2022-08-27T05:51:30.823Z,98382.59
2022-08-27T05:54:04.510Z,98384.78
2022-08-27T05:56:36.988Z,98393.13
2022-08-27T05:59:23.892Z,98392.78
2022-08-27T06:01:53.379Z,98387.22
2022-08-27T06:04:22.787Z,98391.91
2022-08-27T06:06:51.004Z,98388.03
2022-08-27T06:09:26.260Z,98390.88
2022-08-27T06:12:00.541Z,98390.75
2022-08-27T06:14:28.418Z,98397.88
2022-08-27T06:16:55.841Z,98396.03
2022-08-27T06:19:23.933Z,98398.22
2022-08-27T06:22:01.113Z,98400.19
2022-08-27T06:24:39.442Z,98406.09
2022-08-27T06:27:06.274Z,98398.63
2022-08-27T06:29:35.020Z,98398.00
2022-08-27T06:32:01.719Z,98399.34
2022-08-27T06:34:28.272Z,98400.19
2022-08-27T06:36:54.967Z,98400.38
2022-08-27T06:39:21.557Z,98406.66
2022-08-27T06:41:50.145Z,98403.44
2022-08-27T06:44:16.679Z,98396.91
2022-08-27T06:46:43.954Z,98401.41
2022-08-27T06:49:12.567Z,98403.88
2022-08-27T06:51:42.992Z,98403.38
2022-08-27T06:54:12.163Z,98410.94
2022-08-27T06:56:40.514Z,98409.28
2022-08-27T06:59:12.282Z,98414.22
2022-08-27T07:01:43.903Z,98408.84
2022-08-27T07:04:19.125Z,98404.03
2022-08-27T07:06:45.779Z,98406.63
2022-08-27T07:09:12.419Z,98407.69
2022-08-27T07:11:39.550Z,98409.19
2022-08-27T07:14:08.163Z,98414.00
2022-08-27T07:16:36.054Z,98404.56
2022-08-27T07:19:05.372Z,98409.41
2022-08-27T07:21:34.826Z,98400.09
2022-08-27T07:24:04.925Z,98395.81
2022-08-27T07:26:35.203Z,98394.16
2022-08-27T07:29:04.763Z,98404.56
2022-08-27T07:31:32.383Z,98401.47
2022-08-27T07:33:58.947Z,98397.81
2022-08-27T07:36:25.723Z,98393.31
2022-08-27T07:38:59.292Z,98404.31
2022-08-27T07:41:32.034Z,98405.28
2022-08-27T07:44:21.005Z,98405.47
2022-08-27T07:46:58.567Z,98406.16
2022-08-27T07:49:28.934Z,98403.00
2022-08-27T07:51:55.785Z,98411.88
2022-08-27T07:54:23.167Z,98406.03
2022-08-27T07:56:55.487Z,98411.00
2022-08-27T07:59:25.185Z,98406.34
2022-08-27T08:01:55.783Z,98409.72
2022-08-27T08:04:22.863Z,98415.28
2022-08-27T08:06:51.537Z,98415.13
2022-08-27T08:09:19.743Z,98425.97
2022-08-27T08:11:46.319Z,98417.25
2022-08-27T08:14:12.929Z,98426.16
2022-08-27T08:16:40.133Z,98423.81
2022-08-27T08:19:07.062Z,98430.53
2022-08-27T08:21:33.619Z,98426.69
2022-08-27T08:24:01.978Z,98434.53
2022-08-27T08:26:29.053Z,98430.22
2022-08-27T08:28:55.737Z,98439.88
2022-08-27T08:31:23.962Z,98442.22
2022-08-27T08:33:50.568Z,98442.41
2022-08-27T08:36:17.943Z,98443.03
2022-08-27T08:38:47.213Z,98443.00
2022-08-27T08:41:22.733Z,98448.13
2022-08-27T08:43:51.591Z,98445.97
2022-08-27T08:46:58.608Z,98446.81
2022-08-27T08:50:08.024Z,98445.91
2022-08-27T08:52:34.454Z,98442.69
2022-08-27T08:55:13.033Z,98443.22
2022-08-27T08:58:14.503Z,98439.72
2022-08-27T09:00:45.208Z,98449.22
2022-08-27T09:03:14.824Z,98449.59
2022-08-27T09:05:51.862Z,98461.63
2022-08-27T09:08:41.287Z,98454.63
2022-08-27T09:11:28.344Z,98462.97
2022-08-27T09:14:03.120Z,98454.78
2022-08-27T09:16:30.245Z,98461.31
2022-08-27T09:18:56.877Z,98458.13
2022-08-27T09:21:43.539Z,98456.28
2022-08-27T09:24:36.982Z,98458.97
2022-08-27T09:27:03.924Z,98456.34
2022-08-27T09:29:30.659Z,98456.19
2022-08-27T09:32:03.828Z,98452.03
2022-08-27T09:34:41.106Z,98455.03
2022-08-27T09:37:20.384Z,98452.69
2022-08-27T09:40:04.696Z,98456.53
2022-08-27T09:42:43.101Z,98458.19
2022-08-27T09:45:28.668Z,98451.69
2022-08-27T09:48:14.848Z,98459.88
2022-08-27T09:50:53.358Z,98455.38
2022-08-27T09:53:25.606Z,98466.41
2022-08-27T09:56:00.525Z,98475.06
2022-08-27T09:58:47.321Z,98471.03
2022-08-27T10:01:21.871Z,98476.16
2022-08-27T10:03:49.663Z,98468.03
2022-08-27T10:06:38.419Z,98466.72
2022-08-27T10:09:22.026Z,98464.06
2022-08-27T10:12:10.011Z,98466.56
2022-08-27T10:14:54.941Z,98468.41
2022-08-27T10:17:42.632Z,98467.06
2022-08-27T10:20:42.226Z,98464.56
2022-08-27T10:23:26.313Z,98469.56
2022-08-27T10:26:29.696Z,98470.56
2022-08-27T10:29:40.034Z,98474.25
2022-08-27T10:32:55.587Z,98471.06
2022-08-27T10:35:47.891Z,98471.72
2022-08-27T10:38:42.441Z,98465.19
2022-08-27T10:41:21.306Z,98474.38
2022-08-27T10:44:12.672Z,98466.19
2022-08-27T10:47:12.028Z,98469.53
2022-08-27T10:50:04.159Z,98466.34
2022-08-27T10:52:51.480Z,98459.94
2022-08-27T10:55:26.858Z,98467.72
2022-08-27T10:58:31.147Z,98481.50
2022-08-27T11:01:30.233Z,98473.28
2022-08-27T11:04:06.678Z,98471.91
2022-08-27T11:06:44.199Z,98468.69
2022-08-27T11:09:21.469Z,98468.69
2022-08-27T11:12:14.214Z,98466.16
2022-08-27T11:14:56.939Z,98467.38
2022-08-27T11:17:59.158Z,98465.72
2022-08-27T11:20:31.312Z,98462.97
2022-08-27T11:23:08.569Z,98465.13
2022-08-27T11:26:02.122Z,98465.63
2022-08-27T11:28:44.201Z,98465.97
2022-08-27T11:32:20.275Z,98461.16
2022-08-27T11:34:59.129Z,98458.06
2022-08-27T11:38:11.067Z,98459.72
2022-08-27T11:40:56.116Z,98457.59
2022-08-27T11:43:28.733Z,98463.44
2022-08-27T11:46:01.029Z,98462.47
2022-08-27T11:48:32.447Z,98464.06
2022-08-27T11:51:05.700Z,98462.78
2022-08-27T11:53:52.293Z,98463.19
2022-08-27T11:56:35.583Z,98467.38
2022-08-27T11:59:23.301Z,98473.31
2022-08-27T12:01:53.869Z,98467.47
2022-08-27T12:04:37.202Z,98471.16
2022-08-27T12:07:22.158Z,98464.19
2022-08-27T12:10:18.600Z,98462.06
2022-08-27T12:13:02.552Z,98461.09
2022-08-27T12:15:41.209Z,98466.19
2022-08-27T12:19:05.320Z,98470.47
2022-08-27T12:22:05.400Z,98467.28
2022-08-27T12:24:40.246Z,98461.88
2022-08-27T12:27:21.971Z,98462.31
2022-08-27T12:30:15.858Z,98466.78
2022-08-27T12:32:46.359Z,98473.06
2022-08-27T12:35:32.603Z,98479.28
2022-08-27T12:38:33.556Z,98473.94
2022-08-27T12:41:09.104Z,98479.06
2022-08-27T12:43:43.169Z,98473.81
2022-08-27T12:46:19.346Z,98472.25
2022-08-27T12:48:57.899Z,98465.72
2022-08-27T12:51:36.894Z,98466.28
2022-08-27T12:54:52.546Z,98457.31
2022-08-27T12:57:56.256Z,98465.56
2022-08-27T13:00:26.504Z,98456.22
2022-08-27T13:03:21.225Z,98458.59
2022-08-27T13:05:56.666Z,98456.84
2022-08-27T13:08:35.927Z,98445.84
2022-08-27T13:11:30.854Z,98457.94
2022-08-27T13:14:11.464Z,98455.44
2022-08-27T13:16:46.598Z,98451.44
2022-08-27T13:19:57.944Z,98446.69
2022-08-27T13:22:38.575Z,98449.75
2022-08-27T13:25:07.634Z,98448.69
2022-08-27T13:27:37.299Z,98440.94
2022-08-27T13:30:11.934Z,98446.41
2022-08-27T13:32:53.998Z,98441.91
2022-08-27T13:35:21.749Z,98437.88
2022-08-27T13:37:57.516Z,98443.50
2022-08-27T13:40:51.310Z,98439.06
2022-08-27T13:43:19.196Z,98445.69
2022-08-27T13:45:51.597Z,98436.00
2022-08-27T13:48:19.970Z,98436.28
2022-08-27T13:50:56.964Z,98436.38
2022-08-27T13:53:50.419Z,98427.72
2022-08-27T13:56:39.089Z,98432.19
2022-08-27T13:59:14.980Z,98423.63
2022-08-27T14:02:10.680Z,98421.22
2022-08-27T14:04:49.945Z,98427.72
2022-08-27T14:07:34.486Z,98425.06
2022-08-27T14:10:27.278Z,98417.38
2022-08-27T14:13:03.308Z,98427.91
2022-08-27T14:15:42.232Z,98417.84
2022-08-27T14:18:55.482Z,98426.56
2022-08-27T14:21:21.088Z,98426.13
2022-08-27T14:23:47.904Z,98439.72
2022-08-27T14:26:17.236Z,98425.34
2022-08-27T14:28:45.083Z,98440.63
2022-08-27T14:31:13.314Z,98442.56
2022-08-27T14:33:40.593Z,98432.94
2022-08-27T14:36:08.754Z,98429.88
2022-08-27T14:38:41.049Z,98435.81
2022-08-27T14:41:09.042Z,98431.16
2022-08-27T14:43:36.207Z,98426.00
2022-08-27T14:46:06.272Z,98422.97
2022-08-27T14:48:34.698Z,98416.66
2022-08-27T14:51:12.314Z,98430.31
2022-08-27T14:53:38.850Z,98429.16
2022-08-27T14:56:06.182Z,98429.88
2022-08-27T14:58:32.906Z,98425.31
2022-08-27T15:00:59.586Z,98431.53
2022-08-27T15:03:26.231Z,98432.91
2022-08-27T15:05:55.092Z,98436.25
2022-08-27T15:08:27.662Z,98436.72
2022-08-27T15:10:56.519Z,98441.22
2022-08-27T15:13:23.030Z,98438.28
2022-08-27T15:15:49.664Z,98439.31
2022-08-27T15:18:18.828Z,98436.25
2022-08-27T15:20:45.450Z,98444.25
2022-08-27T15:23:14.582Z,98447.75
2022-08-27T15:25:42.366Z,98442.72
2022-08-27T15:28:08.898Z,98447.53
2022-08-27T15:30:36.926Z,98445.53
2022-08-27T15:33:06.215Z,98441.91
2022-08-27T15:35:33.295Z,98443.19
2022-08-27T15:38:00.557Z,98441.72
2022-08-27T15:40:31.959Z,98444.94
2022-08-27T15:43:04.095Z,98450.22
2022-08-27T15:45:32.565Z,98445.31
2022-08-27T15:48:00.464Z,98443.09
2022-08-27T15:50:29.575Z,98441.13
2022-08-27T15:53:05.559Z,98451.41
2022-08-27T15:55:36.456Z,98449.63
2022-08-27T15:58:05.040Z,98439.72
2022-08-27T16:00:35.399Z,98444.13
2022-08-27T16:03:11.059Z,98446.88
2022-08-27T16:05:47.404Z,98451.69
2022-08-27T16:08:14.430Z,98451.53
2022-08-27T16:10:41.109Z,98450.81
2022-08-27T16:13:07.666Z,98455.88
2022-08-27T16:15:39.320Z,98452.25
2022-08-27T16:18:09.960Z,98459.72
2022-08-27T16:20:37.147Z,98445.59
2022-08-27T16:23:04.319Z,98455.63
2022-08-27T16:25:30.984Z,98455.69
2022-08-27T16:28:00.818Z,98455.00
2022-08-27T16:30:28.493Z,98455.91
2022-08-27T16:32:55.878Z,98458.72
2022-08-27T16:35:24.968Z,98456.03
2022-08-27T16:37:52.316Z,98459.38
2022-08-27T16:40:18.970Z,98456.03
2022-08-27T16:42:48.258Z,98450.34
2022-08-27T16:45:17.792Z,98451.00
2022-08-27T16:48:03.393Z,98453.19
2022-08-27T16:50:35.907Z,98458.97
2022-08-27T16:53:07.367Z,98451.66
2022-08-27T16:55:37.536Z,98450.00
2022-08-27T16:58:13.451Z,98446.81
2022-08-27T17:00:40.405Z,98450.16
2022-08-27T17:03:08.090Z,98459.63
2022-08-27T17:05:35.300Z,98458.53
2022-08-27T17:08:02.737Z,98456.19
2022-08-27T17:10:39.032Z,98454.06
2022-08-27T17:13:08.938Z,98465.03
2022-08-27T17:18:03.829Z,98472.38
2022-08-27T17:20:31.116Z,98459.97
2022-08-27T17:22:58.211Z,98468.84
2022-08-27T17:25:30.156Z,98474.38
2022-08-27T17:28:00.156Z,98480.06
2022-08-27T17:30:27.378Z,98475.38
2022-08-27T17:32:54.186Z,98474.72
2022-08-27T17:35:21.056Z,98480.72
2022-08-27T17:37:48.195Z,98476.22
2022-08-27T17:40:14.787Z,98483.41
2022-08-27T17:42:41.473Z,98476.56
2022-08-27T17:45:08.841Z,98480.72
2022-08-27T17:47:35.367Z,98472.41
2022-08-27T17:50:02.620Z,98480.41
2022-08-27T17:52:29.759Z,98478.41
2022-08-27T17:54:56.668Z,98483.09
2022-08-27T17:57:40.089Z,98482.41
2022-08-27T18:00:12.548Z,98484.09
2022-08-27T18:02:44.617Z,98489.47
2022-08-27T18:05:13.254Z,98485.44
2022-08-27T18:07:42.548Z,98484.59
2022-08-27T18:10:12.826Z,98486.09
2022-08-27T18:12:40.977Z,98495.97
2022-08-27T18:15:09.940Z,98489.59
2022-08-27T18:17:42.493Z,98495.78
2022-08-27T18:20:13.477Z,98486.25
2022-08-27T18:22:48.540Z,98493.81
2022-08-27T18:25:17.900Z,98499.31
2022-08-27T18:27:48.772Z,98510.00
2022-08-27T18:30:16.216Z,98505.97
2022-08-27T18:32:42.905Z,98515.00
2022-08-27T18:35:27.449Z,98508.47
2022-08-27T18:37:54.724Z,98513.19
2022-08-27T18:40:26.704Z,98510.50
2022-08-27T18:42:54.159Z,98511.50
2022-08-27T18:45:28.541Z,98516.50
2022-08-27T18:47:59.286Z,98518.66
2022-08-27T18:50:26.736Z,98522.47
2022-08-27T18:52:56.680Z,98521.97
2022-08-27T18:55:27.984Z,98515.78
2022-08-27T18:57:55.163Z,98518.75
2022-08-27T19:00:22.625Z,98521.06
2022-08-27T19:02:52.702Z,98526.75
2022-08-27T19:05:25.373Z,98524.53
2022-08-27T19:07:54.374Z,98529.41
2022-08-27T19:10:21.451Z,98530.22
2022-08-27T19:12:48.184Z,98528.41
2022-08-27T19:15:15.717Z,98530.22
2022-08-27T19:17:46.947Z,98526.84
2022-08-27T19:20:15.754Z,98529.66
2022-08-27T19:22:42.249Z,98520.97
2022-08-27T19:25:09.160Z,98527.66
2022-08-27T19:27:36.631Z,98521.47
2022-08-27T19:30:06.097Z,98529.97
2022-08-27T19:32:33.095Z,98527.63
2022-08-27T19:34:59.714Z,98534.00
2022-08-27T19:37:30.609Z,98534.66
2022-08-27T19:39:57.624Z,98535.66
2022-08-27T19:42:24.302Z,98545.84
2022-08-27T19:44:50.979Z,98547.38
2022-08-27T19:47:21.457Z,98539.88
2022-08-27T19:49:49.607Z,98543.38
2022-08-27T19:52:16.272Z,98545.22
2022-08-27T19:55:09.775Z,98544.06
2022-08-27T19:57:29.421Z,98554.28
2022-08-27T19:59:55.973Z,98549.78
2022-08-27T20:02:23.695Z,98552.59
2022-08-27T20:05:14.247Z,98554.28
2022-08-27T20:07:36.852Z,98550.25
2022-08-27T20:10:08.261Z,98546.75
2022-08-27T20:12:35.838Z,98556.63
2022-08-27T20:15:02.568Z,98551.13
2022-08-27T20:17:29.583Z,98549.59
2022-08-27T20:19:58.432Z,98541.94
2022-08-27T20:22:25.128Z,98551.78
2022-08-27T20:24:51.650Z,98551.44
2022-08-27T20:27:18.238Z,98556.94
2022-08-27T20:29:44.858Z,98551.59
2022-08-27T20:32:12.992Z,98551.25
2022-08-27T20:34:39.872Z,98550.53
2022-08-27T20:37:06.702Z,98546.75
2022-08-27T20:39:34.123Z,98543.78
2022-08-27T20:42:00.729Z,98557.94
2022-08-27T20:44:27.478Z,98559.69
2022-08-27T20:46:59.739Z,98555.53
2022-08-27T20:49:27.856Z,98550.78
2022-08-27T20:52:02.882Z,98556.78
2022-08-27T20:54:33.746Z,98558.75
2022-08-27T20:57:02.147Z,98557.09
2022-08-27T20:59:48.379Z,98553.59
2022-08-27T21:02:21.800Z,98562.22
2022-08-27T21:04:49.129Z,98565.88
2022-08-27T21:07:18.230Z,98564.66
2022-08-27T21:09:56.347Z,98561.94
2022-08-27T21:12:26.221Z,98561.03
2022-08-27T21:14:54.902Z,98568.38
2022-08-27T21:17:24.502Z,98577.88
2022-08-27T21:19:51.230Z,98580.53
2022-08-27T21:22:19.748Z,98584.91
2022-08-27T21:24:47.394Z,98579.56
2022-08-27T21:27:20.963Z,98578.56
2022-08-27T21:29:47.823Z,98585.50
2022-08-27T21:32:15.635Z,98576.16
2022-08-27T21:34:42.744Z,98578.44
2022-08-27T21:37:13.508Z,98577.59
2022-08-27T21:39:42.912Z,98577.75
2022-08-27T21:42:12.409Z,98580.78
2022-08-27T21:44:39.567Z,98584.44
2022-08-27T21:47:06.594Z,98586.13
2022-08-27T21:49:33.827Z,98585.59
2022-08-27T21:52:04.702Z,98581.41
2022-08-27T21:54:33.815Z,98586.03
2022-08-27T21:57:00.664Z,98586.28
2022-08-27T21:59:27.288Z,98587.72
2022-08-27T22:02:00.490Z,98586.50
2022-08-27T22:04:27.505Z,98587.75
2022-08-27T22:06:57.898Z,98592.41
2022-08-27T22:09:24.551Z,98589.75
2022-08-27T22:11:51.129Z,98586.63
2022-08-27T22:14:17.826Z,98589.53
2022-08-27T22:16:44.427Z,98593.88
2022-08-27T22:19:10.947Z,98592.03
2022-08-27T22:21:37.767Z,98590.22
2022-08-27T22:24:04.558Z,98589.63
2022-08-27T22:26:31.809Z,98587.88
2022-08-27T22:28:58.404Z,98587.59
2022-08-27T22:31:25.136Z,98583.38
2022-08-27T22:33:52.446Z,98582.84
2022-08-27T22:36:20.176Z,98578.50
2022-08-27T22:38:47.723Z,98578.81
2022-08-27T22:41:15.013Z,98574.47
2022-08-27T22:43:45.341Z,98570.81
2022-08-27T22:46:12.387Z,98572.53
2022-08-27T22:48:39.194Z,98574.97
2022-08-27T22:51:05.917Z,98572.84
2022-08-27T22:53:35.716Z,98569.97
2022-08-27T22:56:05.947Z,98570.06
2022-08-27T22:58:32.474Z,98570.22
2022-08-27T23:00:59.069Z,98572.34
2022-08-27T23:03:25.745Z,98567.31
2022-08-27T23:05:52.650Z,98569.63
2022-08-27T23:08:19.427Z,98578.03
2022-08-27T23:10:45.972Z,98582.84
2022-08-27T23:13:13.291Z,98572.53
2022-08-27T23:15:41.458Z,98575.50
2022-08-27T23:18:08.322Z,98571.34
2022-08-27T23:20:35.146Z,98580.75
2022-08-27T23:23:02.682Z,98567.44
2022-08-27T23:26:05.094Z,98569.97
2022-08-27T23:28:31.754Z,98562.28
2022-08-27T23:30:59.515Z,98569.56
2022-08-27T23:33:26.180Z,98555.69
2022-08-27T23:35:52.753Z,98567.06
2022-08-27T23:38:21.390Z,98558.84
2022-08-27T23:40:49.532Z,98556.41
2022-08-27T23:43:18.128Z,98550.97
2022-08-27T23:45:44.707Z,98552.22
2022-08-27T23:48:12.919Z,98552.66
2022-08-27T23:50:40.700Z,98552.28
2022-08-27T23:53:08.078Z,98552.44
2022-08-27T23:55:34.843Z,98549.75
2022-08-27T23:58:02.647Z,98551.59
